Time;durP1;ratioP1;P1;durP2;ratioP2;P2;SDS_P1;SDS_P2;PMS_P1;PMS_P2;Temp;Humidity;BMP_temperature;BMP_pressure;BME280_temperature;BME280_humidity;BME280_pressure;Samples;Min_cycle;Max_cycle;Signal;HPM_P1;HPM_P2
2022/06/17 00:02:08;;;;;;;3.85;1.50;;;22.00;64.60;;;;;;5095255;28;20117;-75
2022/06/17 00:04:34;;;;;;;3.47;1.58;;;22.00;64.50;;;;;;5094538;28;20020;-76
2022/06/17 00:07:06;;;;;;;2.13;1.60;;;21.90;64.70;;;;;;5094543;28;20387;-75
2022/06/17 00:09:35;;;;;;;3.38;1.40;;;21.90;65.00;;;;;;5094014;28;20030;-75
2022/06/17 00:12:02;;;;;;;4.45;1.20;;;21.90;64.90;;;;;;5093822;28;20465;-75
2022/06/17 00:14:31;;;;;;;5.95;1.98;;;21.90;64.80;;;;;;5094018;28;20410;-75
2022/06/17 00:16:58;;;;;;;3.70;1.73;;;21.90;64.80;;;;;;5094266;28;20027;-75
2022/06/17 00:19:24;;;;;;;2.40;1.38;;;21.80;65.20;;;;;;5093938;28;20020;-75
2022/06/17 00:21:52;;;;;;;3.25;1.55;;;21.70;65.20;;;;;;5093827;28;20031;-75
2022/06/17 00:24:27;;;;;;;4.43;1.92;;;21.70;65.30;;;;;;5093922;28;20028;-75
2022/06/17 00:26:54;;;;;;;2.90;1.05;;;21.70;65.20;;;;;;5093684;28;20028;-75
2022/06/17 00:29:23;;;;;;;2.35;1.45;;;21.80;65.10;;;;;;5093702;28;20028;-75
2022/06/17 00:31:49;;;;;;;3.70;1.92;;;21.90;64.80;;;;;;5093636;28;20549;-75
2022/06/17 00:34:15;;;;;;;4.53;1.65;;;21.90;64.60;;;;;;5093761;28;20062;-75
2022/06/17 00:36:42;;;;;;;3.60;1.80;;;21.90;64.50;;;;;;5093794;28;20415;-75
2022/06/17 00:39:17;;;;;;;3.15;1.73;;;21.90;64.50;;;;;;5093940;28;20460;-75
2022/06/17 00:41:46;;;;;;;3.60;1.83;;;22.00;64.40;;;;;;5093945;28;20032;-75
2022/06/17 00:44:37;;;;;;;2.95;1.70;;;22.00;64.20;;;;;;5093582;28;20024;-75
2022/06/17 00:47:20;;;;;;;3.13;1.70;;;22.10;64.10;;;;;;5093440;28;20491;-75
2022/06/17 00:49:53;;;;;;;3.58;1.60;;;22.10;63.90;;;;;;5093049;28;20073;-75
2022/06/17 00:52:41;;;;;;;3.13;1.35;;;22.10;64.60;;;;;;5093643;28;20031;-75
2022/06/17 00:55:21;;;;;;;3.38;1.48;;;22.10;63.90;;;;;;5093814;28;20031;-75
2022/06/17 00:57:46;;;;;;;3.97;1.80;;;22.10;64.00;;;;;;5093201;28;20042;-75
2022/06/17 01:00:18;;;;;;;5.88;1.70;;;22.10;64.00;;;;;;5093143;28;20050;-75
2022/06/17 01:02:52;;;;;;;4.93;2.03;;;22.10;64.00;;;;;;5093688;28;20093;-75
2022/06/17 01:05:23;;;;;;;2.67;1.33;;;22.10;64.00;;;;;;5093842;28;20032;-75
2022/06/17 01:07:58;;;;;;;3.08;1.60;;;22.10;64.00;;;;;;5093809;28;20094;-75
2022/06/17 01:10:25;;;;;;;4.88;1.75;;;22.20;64.00;;;;;;5093476;28;20060;-75
2022/06/17 01:13:06;;;;;;;2.40;1.80;;;22.20;64.10;;;;;;5092964;28;20483;-75
2022/06/17 01:15:34;;;;;;;5.10;2.20;;;22.10;64.00;;;;;;5093403;28;20029;-75
2022/06/17 01:18:01;;;;;;;2.65;1.80;;;22.10;63.90;;;;;;5093199;28;20031;-75
2022/06/17 01:20:28;;;;;;;4.72;2.05;;;22.10;64.00;;;;;;5093046;28;20024;-75
2022/06/17 01:22:58;;;;;;;4.35;2.30;;;22.00;64.60;;;;;;5093033;28;20016;-75
2022/06/17 01:25:33;;;;;;;3.05;1.85;;;22.00;64.20;;;;;;5093171;28;20047;-75
2022/06/17 01:28:07;;;;;;;5.60;1.73;;;21.90;64.30;;;;;;5093056;28;20056;-75
2022/06/17 01:30:39;;;;;;;2.05;1.27;;;21.90;64.50;;;;;;5093174;28;20043;-75
2022/06/17 01:33:11;;;;;;;;;;;21.90;64.50;;;;;;5093275;28;20027;-75
2022/06/17 01:35:54;;;;;;;6.40;1.67;;;21.90;65.10;;;;;;5093021;28;19907;-75
2022/06/17 01:38:21;;;;;;;3.55;1.88;;;21.90;64.50;;;;;;5093330;28;20113;-75
2022/06/17 01:40:48;;;;;;;2.60;2.10;;;21.90;64.50;;;;;;5093311;28;20024;-75
2022/06/17 01:43:17;;;;;;;5.68;2.25;;;21.90;64.70;;;;;;5092817;28;20024;-75
2022/06/17 01:45:49;;;;;;;5.72;2.92;;;21.90;64.70;;;;;;5093041;28;20360;-75
2022/06/17 01:48:17;;;;;;;3.00;1.87;;;21.90;64.50;;;;;;5093058;28;20040;-75
2022/06/17 01:50:44;;;;;;;7.65;2.33;;;21.80;64.60;;;;;;5092861;28;20618;-75
2022/06/17 01:53:14;;;;;;;3.92;2.22;;;21.90;64.70;;;;;;5093145;28;20146;-75
2022/06/17 01:55:45;;;;;;;4.30;2.17;;;21.80;64.70;;;;;;5093221;28;20024;-75
2022/06/17 01:58:36;;;;;;;5.88;2.50;;;21.90;64.70;;;;;;5092855;28;20024;-75
2022/06/17 02:01:04;;;;;;;3.55;2.15;;;21.90;64.60;;;;;;5092639;28;20056;-75
2022/06/17 02:03:33;;;;;;;3.72;2.50;;;21.80;64.50;;;;;;5092953;28;20050;-75
2022/06/17 02:06:15;;;;;;;3.63;2.13;;;21.80;64.60;;;;;;5093316;28;20020;-75
2022/06/17 02:08:41;;;;;;;9.05;2.13;;;21.80;64.80;;;;;;5093694;28;20036;-75
2022/06/17 02:11:07;;;;;;;4.18;2.22;;;21.80;64.70;;;;;;5096313;28;20372;-75
2022/06/17 02:13:33;;;;;;;6.88;2.28;;;21.80;64.70;;;;;;5096216;28;20028;-75
2022/06/17 02:16:01;;;;;;;3.65;2.58;;;21.80;64.70;;;;;;5096307;28;20023;-75
2022/06/17 02:18:27;;;;;;;4.20;2.65;;;21.80;64.80;;;;;;5096548;28;20418;-75
2022/06/17 02:20:57;;;;;;;4.72;2.40;;;21.80;64.90;;;;;;5096089;28;20027;-74
2022/06/17 02:23:26;;;;;;;5.20;2.30;;;21.80;64.90;;;;;;5096445;28;20352;-75
2022/06/17 02:25:53;;;;;;;9.70;3.45;;;21.80;65.00;;;;;;5096054;28;20032;-74
2022/06/17 02:28:19;;;;;;;4.50;2.78;;;21.80;65.00;;;;;;5096412;28;20353;-75
2022/06/17 02:30:48;;;;;;;5.18;2.13;;;21.80;65.00;;;;;;5096027;28;20028;-74
2022/06/17 02:33:14;;;;;;;5.30;2.70;;;21.80;65.10;;;;;;5095966;28;20099;-75
2022/06/17 02:36:03;;;;;;;5.47;3.20;;;21.80;65.20;;;;;;5095554;28;20086;-75
2022/06/17 02:38:32;;;;;;;8.27;3.90;;;21.80;65.30;;;;;;5095897;28;20471;-75
2022/06/17 02:41:05;;;;;;;5.35;3.15;;;21.70;65.50;;;;;;5095933;28;20028;-75
2022/06/17 02:43:35;;;;;;;5.55;4.10;;;21.60;65.70;;;;;;5096051;28;20123;-75
2022/06/17 02:46:21;;;;;;;7.60;3.65;;;21.40;65.90;;;;;;5095402;28;20031;-75
2022/06/17 02:48:57;;;;;;;5.20;3.75;;;21.40;66.10;;;;;;5095516;28;20075;-75
2022/06/17 02:51:29;;;;;;;11.02;4.88;;;21.30;66.50;;;;;;5095842;28;20151;-75
2022/06/17 02:53:56;;;;;;;7.78;4.25;;;21.30;66.60;;;;;;5095929;28;20016;-75
2022/06/17 02:56:25;;;;;;;7.80;4.63;;;21.20;66.70;;;;;;5095516;28;20052;-75
2022/06/17 02:59:22;;;;;;;5.88;3.72;;;21.20;66.80;;;;;;5095440;28;20016;-75
2022/06/17 03:01:51;;;;;;;7.53;3.58;;;21.20;66.90;;;;;;5095617;28;20392;-75
2022/06/17 03:04:25;;;;;;;6.72;3.97;;;21.20;67.00;;;;;;5095686;28;20099;-75
2022/06/17 03:06:51;;;;;;;6.10;3.80;;;21.20;66.90;;;;;;5095305;28;20039;-75
2022/06/17 03:09:31;;;;;;;7.35;3.95;;;21.20;66.70;;;;;;5095194;28;20024;-75
2022/06/17 03:12:15;;;;;;;5.95;3.67;;;21.30;66.70;;;;;;5095251;28;20024;-75
2022/06/17 03:14:54;;;;;;;4.10;3.20;;;21.40;66.80;;;;;;5095222;28;20483;-75
2022/06/17 03:17:23;;;;;;;5.88;3.83;;;21.40;66.80;;;;;;5095114;28;20050;-75
2022/06/17 03:19:49;;;;;;;5.63;4.13;;;21.40;66.70;;;;;;5094683;28;20028;-76
2022/06/17 03:22:15;;;;;;;5.07;4.07;;;21.40;66.80;;;;;;5094961;28;20023;-75
2022/06/17 03:25:09;;;;;;;5.32;3.45;;;21.40;66.90;;;;;;5095231;28;20035;-76
2022/06/17 03:27:47;;;;;;;7.55;4.45;;;21.40;66.80;;;;;;5094943;28;20020;-75
2022/06/17 03:30:23;;;;;;;6.85;4.95;;;21.40;67.00;;;;;;5094893;28;20043;-75
2022/06/17 03:32:58;;;;;;;4.32;3.72;;;21.30;67.30;;;;;;5094995;28;20386;-75
2022/06/17 03:35:31;;;;;;;7.13;3.90;;;21.20;67.50;;;;;;5095038;28;20048;-76
2022/06/17 03:38:31;;;;;;;5.03;3.72;;;21.20;67.40;;;;;;5094779;28;20023;-75
2022/06/17 03:41:12;;;;;;;7.28;4.15;;;21.30;67.40;;;;;;5094352;28;20031;-75
2022/06/17 03:43:49;;;;;;;4.00;3.50;;;21.30;67.30;;;;;;5094614;28;20467;-75
2022/06/17 03:46:18;;;;;;;5.57;3.80;;;21.30;67.30;;;;;;5094920;28;20125;-75
2022/06/17 03:48:54;;;;;;;5.18;3.83;;;21.30;67.30;;;;;;5094339;28;20068;-75
2022/06/17 03:51:22;;;;;;;7.72;4.13;;;21.30;67.20;;;;;;5094428;28;20471;-75
2022/06/17 03:53:49;;;;;;;3.72;3.08;;;21.40;67.30;;;;;;5094421;28;20024;-75
2022/06/17 03:56:22;;;;;;;4.45;3.45;;;21.40;67.90;;;;;;5094331;28;20032;-75
2022/06/17 03:58:48;;;;;;;5.68;3.25;;;21.40;67.10;;;;;;5094725;28;20020;-75
2022/06/17 04:01:42;;;;;;;4.22;3.65;;;21.40;67.60;;;;;;5094238;28;20225;-75
2022/06/17 04:04:28;;;;;;;3.58;2.80;;;21.40;67.00;;;;;;5094330;28;20020;-75
2022/06/17 04:06:57;;;;;;;5.50;3.22;;;21.40;67.00;;;;;;5093945;28;20020;-75
2022/06/17 04:09:31;;;;;;;4.50;3.47;;;21.40;67.00;;;;;;5094013;28;20020;-75
2022/06/17 04:12:03;;;;;;;6.57;3.70;;;21.50;67.00;;;;;;5094353;28;20024;-76
2022/06/17 04:15:08;;;;;;;5.90;3.50;;;21.50;67.20;;;;;;5093951;28;20111;-76
2022/06/17 04:17:40;;;;;;;4.82;3.95;;;21.50;67.10;;;;;;5093758;28;20024;-76
2022/06/17 04:20:25;;;;;;;6.50;4.45;;;21.50;67.20;;;;;;5094100;28;20044;-75
2022/06/17 04:22:54;;;;;;;5.47;3.08;;;21.40;67.20;;;;;;5093983;28;20064;-76
2022/06/17 04:25:52;;;;;;;8.82;3.78;;;21.40;67.20;;;;;;5093938;28;20027;-76
2022/06/17 04:28:48;;;;;;;5.22;3.17;;;21.40;67.30;;;;;;5069910;28;20107;-75
2022/06/17 04:31:18;;;;;;;5.72;3.53;;;21.50;67.50;;;;;;5093392;28;20040;-76
2022/06/17 04:33:51;;;;;;;6.43;3.65;;;21.50;67.70;;;;;;5093584;28;20055;-75
2022/06/17 04:36:27;;;;;;;4.18;2.70;;;21.50;67.70;;;;;;5094001;28;20418;-76
2022/06/17 04:39:14;;;;;;;6.72;4.03;;;21.60;67.80;;;;;;5093599;28;20024;-76
2022/06/17 04:41:40;;;;;;;5.90;3.75;;;21.50;67.70;;;;;;5093957;28;20054;-76
2022/06/17 04:44:06;;;;;;;4.68;3.28;;;21.50;67.80;;;;;;5093701;28;20030;-74
2022/06/17 04:46:37;;;;;;;6.53;3.67;;;21.50;68.10;;;;;;5093467;28;20103;-76
2022/06/17 04:49:04;;;;;;;7.63;4.43;;;21.50;68.20;;;;;;5093390;28;20552;-75
2022/06/17 04:51:34;;;;;;;8.20;4.10;;;21.50;68.30;;;;;;5093304;28;20097;-76
2022/06/17 04:54:02;;;;;;;6.85;4.30;;;21.50;68.00;;;;;;5093680;28;20047;-76
2022/06/17 04:56:32;;;;;;;8.73;4.55;;;21.40;68.00;;;;;;5093077;28;20387;-76
2022/06/17 04:58:58;;;;;;;8.45;4.25;;;21.40;68.10;;;;;;5093475;28;20067;-75
2022/06/17 05:01:26;;;;;;;5.78;3.53;;;21.40;68.20;;;;;;5093342;28;20471;-76
2022/06/17 05:03:57;;;;;;;5.28;3.80;;;21.40;68.20;;;;;;5093201;28;20024;-76
2022/06/17 05:06:22;;;;;;;5.10;3.60;;;21.40;68.20;;;;;;5093292;28;20486;-75
2022/06/17 05:08:56;;;;;;;6.63;3.90;;;21.40;68.10;;;;;;5093329;28;20028;-75
2022/06/17 05:11:31;;;;;;;4.07;3.13;;;21.40;68.20;;;;;;5093181;28;20467;-73
2022/06/17 05:14:10;;;;;;;6.60;3.80;;;21.30;68.10;;;;;;5093316;28;20467;-75
2022/06/17 05:16:35;;;;;;;4.55;3.47;;;21.40;68.30;;;;;;5093314;28;20027;-76
2022/06/17 05:19:01;;;;;;;8.50;4.63;;;21.40;68.50;;;;;;5093431;28;20471;-75
2022/06/17 05:21:27;;;;;;;9.40;4.30;;;21.40;68.50;;;;;;5092826;28;20106;-75
2022/06/17 05:23:56;;;;;;;5.43;3.55;;;21.40;68.40;;;;;;5093426;28;20036;-74
2022/06/17 05:26:22;;;;;;;6.88;4.60;;;21.30;68.80;;;;;;5092945;28;20016;-75
2022/06/17 05:28:47;;;;;;;7.28;4.90;;;21.30;68.90;;;;;;5092942;28;20024;-75
2022/06/17 05:31:17;;;;;;;7.47;4.18;;;21.30;69.00;;;;;;5092973;28;20032;-75
2022/06/17 05:33:43;;;;;;;6.38;4.40;;;21.20;68.90;;;;;;5093142;28;20034;-75
2022/06/17 05:36:09;;;;;;;8.15;4.68;;;21.20;68.90;;;;;;5093238;28;20407;-75
2022/06/17 05:38:34;;;;;;;7.28;3.83;;;21.20;68.60;;;;;;5092861;28;20031;-75
2022/06/17 05:41:00;;;;;;;4.68;3.95;;;21.10;68.60;;;;;;5092833;28;20024;-75
2022/06/17 05:43:26;;;;;;;7.03;4.10;;;21.20;68.80;;;;;;5094873;28;20020;-75
2022/06/17 05:45:51;;;;;;;11.05;4.00;;;21.20;69.00;;;;;;5096741;28;20024;-75
2022/06/17 05:48:17;;;;;;;7.00;4.13;;;21.30;68.70;;;;;;5096427;28;20036;-75
2022/06/17 05:50:43;;;;;;;6.60;4.63;;;21.30;68.00;;;;;;5096347;28;20040;-76
2022/06/17 05:53:12;;;;;;;6.22;4.13;;;21.30;67.90;;;;;;5096774;28;20073;-75
2022/06/17 05:55:38;;;;;;;4.90;3.95;;;21.40;67.80;;;;;;5096487;28;20416;-76
2022/06/17 05:58:04;;;;;;;7.07;4.60;;;21.40;67.10;;;;;;5096402;28;20023;-76
2022/06/17 06:00:32;;;;;;;6.40;4.32;;;21.40;67.30;;;;;;5096691;28;20030;-74
2022/06/17 06:03:00;;;;;;;5.32;3.60;;;21.40;67.50;;;;;;5096517;28;20020;-75
2022/06/17 06:05:28;;;;;;;7.50;3.60;;;21.40;67.70;;;;;;5096315;28;20021;-75
2022/06/17 06:07:54;;;;;;;7.38;4.10;;;21.40;68.70;;;;;;5096482;28;20071;-75
2022/06/17 06:10:20;;;;;;;7.50;3.88;;;21.50;68.50;;;;;;5096331;28;20084;-75
2022/06/17 06:12:57;;;;;;;7.53;3.28;;;21.50;68.40;;;;;;5096310;28;20021;-75
2022/06/17 06:15:39;;;;;;;6.00;3.85;;;21.60;68.00;;;;;;5096229;28;20024;-75
2022/06/17 06:18:16;;;;;;;7.00;3.67;;;21.80;67.40;;;;;;5096080;28;20020;-75
2022/06/17 06:20:43;;;;;;;6.20;3.50;;;21.80;66.20;;;;;;5095702;28;20028;-75
2022/06/17 06:23:09;;;;;;;6.38;3.50;;;21.80;66.70;;;;;;5095820;28;20384;-75
2022/06/17 06:25:35;;;;;;;5.95;2.67;;;21.80;66.00;;;;;;5096078;28;20024;-75
2022/06/17 06:28:17;;;;;;;3.92;2.80;;;21.80;66.00;;;;;;5096124;28;20020;-75
2022/06/17 06:30:49;;;;;;;5.32;2.10;;;21.90;66.10;;;;;;5095650;28;20032;-75
2022/06/17 06:33:14;;;;;;;4.07;2.40;;;22.00;66.50;;;;;;5095676;28;20498;-75
2022/06/17 06:35:40;;;;;;;4.53;2.03;;;21.90;66.10;;;;;;5096131;28;20036;-75
2022/06/17 06:38:06;;;;;;;6.22;3.00;;;21.90;66.90;;;;;;5096101;28;20020;-76
2022/06/17 06:40:34;;;;;;;5.32;2.20;;;22.00;66.30;;;;;;5095905;28;20023;-75
2022/06/17 06:43:00;;;;;;;3.53;2.38;;;22.00;66.50;;;;;;5095947;28;20436;-75
2022/06/17 06:45:33;;;;;;;5.43;2.40;;;22.00;67.10;;;;;;5095603;28;20467;-75
2022/06/17 06:48:03;;;;;;;9.02;2.50;;;22.10;67.50;;;;;;5095671;28;20442;-75
2022/06/17 06:50:31;;;;;;;6.88;2.35;;;22.10;67.90;;;;;;5095471;28;20046;-75
2022/06/17 06:52:57;;;;;;;6.00;2.33;;;22.20;67.30;;;;;;5095840;28;20024;-75
2022/06/17 06:55:23;;;;;;;3.63;2.50;;;22.40;67.70;;;;;;5094721;28;20425;-74
2022/06/17 06:57:51;;;;;;;5.50;2.78;;;22.40;65.60;;;;;;5095737;28;20024;-75
2022/06/17 07:00:23;;;;;;;6.05;2.78;;;22.40;64.90;;;;;;5095385;28;20099;-75
2022/06/17 07:02:48;;;;;;;5.38;2.15;;;22.40;65.40;;;;;;5095216;28;20140;-75
2022/06/17 07:05:14;;;;;;;6.90;2.40;;;22.40;66.20;;;;;;5095560;28;20147;-75
2022/06/17 07:07:40;;;;;;;3.90;1.90;;;22.40;65.40;;;;;;5095579;28;20356;-74
2022/06/17 07:10:08;;;;;;;4.03;2.03;;;22.50;65.20;;;;;;5095521;28;20062;-75
2022/06/17 07:12:33;;;;;;;6.85;2.30;;;22.50;65.60;;;;;;5095004;28;20059;-75
2022/06/17 07:14:59;;;;;;;7.35;1.95;;;22.60;64.60;;;;;;5095135;28;20020;-74
2022/06/17 07:17:25;;;;;;;4.80;1.83;;;22.60;65.90;;;;;;5095416;28;20375;-74
2022/06/17 07:19:50;;;;;;;4.05;1.40;;;22.60;65.50;;;;;;5095009;28;20027;-74
2022/06/17 07:22:16;;;;;;;4.05;1.50;;;22.80;66.40;;;;;;5094940;28;20106;-75
2022/06/17 07:24:42;;;;;;;6.15;1.98;;;22.80;64.00;;;;;;5095245;28;20024;-74
2022/06/17 07:27:07;;;;;;;3.90;1.75;;;22.80;64.00;;;;;;5095117;28;20367;-74
2022/06/17 07:29:33;;;;;;;3.70;2.00;;;22.80;64.00;;;;;;5094784;28;20100;-75
2022/06/17 07:31:59;;;;;;;4.15;1.63;;;22.90;65.10;;;;;;5094728;28;20028;-76
2022/06/17 07:34:26;;;;;;;2.92;1.65;;;22.90;64.90;;;;;;5094969;28;20103;-76
2022/06/17 07:39:53;;;;;;;4.00;1.33;;;23.00;64.50;;;;;;5094187;28;20035;-76
2022/06/17 07:42:23;;;;;;;6.20;1.48;;;23.10;64.40;;;;;;5094843;28;20142;-76
2022/06/17 07:44:49;;;;;;;5.63;1.70;;;23.20;65.30;;;;;;5094766;28;20024;-75
2022/06/17 07:47:18;;;;;;;4.20;2.13;;;23.30;65.30;;;;;;5094606;28;20356;-75
2022/06/17 07:49:44;;;;;;;8.57;2.95;;;23.40;64.70;;;;;;5094154;28;20040;-75
2022/06/17 07:52:10;;;;;;;6.40;1.75;;;23.60;66.20;;;;;;5093898;28;20020;-75
2022/06/17 07:54:36;;;;;;;3.80;1.45;;;23.70;65.30;;;;;;5094261;28;20020;-75
2022/06/17 07:57:02;;;;;;;2.33;1.50;;;23.80;63.80;;;;;;5094523;28;20028;-75
2022/06/17 07:59:28;;;;;;;2.30;1.20;;;23.90;64.30;;;;;;5094594;28;20482;-75
2022/06/17 08:01:54;;;;;;;10.10;1.48;;;24.10;63.40;;;;;;5094199;28;20371;-75
2022/06/17 08:04:19;;;;;;;4.32;1.17;;;24.20;62.00;;;;;;5094296;28;20107;-74
2022/06/17 08:06:49;;;;;;;4.10;1.40;;;24.40;62.20;;;;;;5093183;28;20092;-75
2022/06/17 08:09:16;;;;;;;4.75;1.73;;;24.40;61.60;;;;;;5094332;28;20024;-75
2022/06/17 08:11:42;;;;;;;4.88;1.73;;;24.50;60.50;;;;;;5093976;28;20044;-75
2022/06/17 08:14:07;;;;;;;5.38;1.80;;;24.60;59.30;;;;;;5094214;28;20372;-75
2022/06/17 08:16:35;;;;;;;4.53;1.83;;;24.70;59.30;;;;;;5093668;28;20031;-75
2022/06/17 08:19:04;;;;;;;6.72;1.80;;;24.70;59.30;;;;;;5093857;28;20024;-75
2022/06/17 08:21:30;;;;;;;3.65;1.27;;;24.80;59.80;;;;;;5094093;28;20020;-75
2022/06/17 08:23:56;;;;;;;3.35;1.30;;;24.80;60.20;;;;;;5093995;28;20028;-75
2022/06/17 08:26:21;;;;;;;2.90;1.05;;;24.90;59.80;;;;;;5093982;28;20069;-75
2022/06/17 08:28:47;;;;;;;5.43;1.40;;;24.90;60.80;;;;;;5093989;28;20024;-75
2022/06/17 08:31:13;;;;;;;5.80;1.55;;;25.00;61.60;;;;;;5093662;28;20475;-75
2022/06/17 08:33:38;;;;;;;3.88;1.50;;;25.10;60.90;;;;;;5093538;28;20099;-75
2022/06/17 08:36:10;;;;;;;2.70;1.23;;;25.10;59.20;;;;;;5093638;28;20467;-75
2022/06/17 08:38:41;;;;;;;5.50;1.00;;;25.20;58.70;;;;;;5093837;28;20020;-76
2022/06/17 08:41:26;;;;;;;3.58;1.58;;;25.30;58.60;;;;;;5093794;28;20441;-75
2022/06/17 08:44:22;;;;;;;5.43;1.38;;;25.30;57.30;;;;;;5093899;28;20100;-76
2022/06/17 08:47:15;;;;;;;3.15;1.23;;;25.50;57.10;;;;;;5093807;28;20031;-76
2022/06/17 08:50:00;;;;;;;3.60;1.25;;;25.50;57.10;;;;;;5093127;28;20032;-76
2022/06/17 08:52:53;;;;;;;6.05;1.60;;;25.60;58.50;;;;;;5092772;28;20112;-76
2022/06/17 08:55:46;;;;;;;3.97;0.90;;;25.70;58.40;;;;;;5093073;28;20448;-76
2022/06/17 08:58:30;;;;;;;2.47;1.30;;;25.90;59.60;;;;;;5093045;28;20029;-76
2022/06/17 09:01:12;;;;;;;3.85;1.30;;;26.10;59.00;;;;;;5093082;28;20103;-76
2022/06/17 09:03:56;;;;;;;2.85;1.35;;;26.10;58.20;;;;;;5092643;28;20085;-75
2022/06/17 09:06:37;;;;;;;3.90;1.38;;;26.20;57.10;;;;;;5093477;28;20028;-75
2022/06/17 09:09:25;;;;;;;5.38;1.38;;;26.40;56.60;;;;;;5092992;28;20044;-76
2022/06/17 09:11:58;;;;;;;3.13;1.40;;;26.40;55.40;;;;;;5092904;28;20048;-76
2022/06/17 09:14:39;;;;;;;3.30;1.52;;;26.40;55.50;;;;;;5092948;28;20031;-76
2022/06/17 09:17:08;;;;;;;3.17;1.13;;;26.40;55.20;;;;;;5093261;28;20020;-76
2022/06/17 09:19:38;;;;;;;2.03;0.93;;;26.50;56.10;;;;;;5099386;28;20028;-75
2022/06/17 09:22:30;;;;;;;3.22;1.02;;;26.50;55.00;;;;;;5097335;28;20110;-76
2022/06/17 09:25:04;;;;;;;3.88;1.02;;;26.60;55.40;;;;;;5089018;28;20047;-76
2022/06/17 09:27:34;;;;;;;3.97;1.15;;;26.70;55.50;;;;;;5096978;28;20486;-75
2022/06/17 09:30:04;;;;;;;4.20;1.30;;;26.70;53.80;;;;;;5097151;28;20035;-75
2022/06/17 09:32:36;;;;;;;5.35;1.27;;;26.80;54.40;;;;;;5097052;28;20475;-76
2022/06/17 09:35:04;;;;;;;;;;;26.90;55.40;;;;;;5097557;28;20023;-76
2022/06/17 09:37:46;;;;;;;3.90;1.60;;;27.00;56.10;;;;;;5097315;28;19914;-76
2022/06/17 09:40:22;;;;;;;4.75;1.25;;;27.10;54.10;;;;;;5096939;28;20024;-76
2022/06/17 09:42:52;;;;;;;4.53;1.10;;;27.10;53.50;;;;;;5097366;28;20032;-76
2022/06/17 09:45:28;;;;;;;3.08;1.27;;;27.20;53.30;;;;;;5096900;28;20104;-76
2022/06/17 09:48:08;;;;;;;4.78;1.45;;;27.20;53.60;;;;;;5096724;28;20130;-76
2022/06/17 09:50:57;;;;;;;5.00;1.08;;;27.30;52.40;;;;;;5097023;28;20127;-77
2022/06/17 09:53:47;;;;;;;7.18;1.23;;;27.40;52.50;;;;;;5096923;28;20016;-76
2022/06/17 09:56:34;;;;;;;4.03;1.10;;;27.40;53.10;;;;;;5096696;28;20058;-76
2022/06/17 09:59:12;;;;;;;5.10;1.25;;;27.60;52.40;;;;;;5096647;28;20028;-76
2022/06/17 10:01:40;;;;;;;4.15;1.30;;;27.60;51.30;;;;;;5096535;28;20020;-76
2022/06/17 10:04:14;;;;;;;5.00;1.30;;;27.60;52.90;;;;;;5096361;28;20479;-76
2022/06/17 10:07:09;;;;;;;3.70;1.38;;;27.70;53.70;;;;;;5096417;28;20024;-76
2022/06/17 10:09:46;;;;;;;4.78;1.30;;;27.80;52.10;;;;;;5096508;28;20028;-76
2022/06/17 10:12:33;;;;;;;8.95;1.35;;;27.80;52.10;;;;;;5095991;28;20028;-76
2022/06/17 10:15:11;;;;;;;3.72;1.10;;;27.80;52.40;;;;;;5096495;28;20074;-76
2022/06/17 10:18:33;;;;;;;4.45;1.17;;;27.90;52.40;;;;;;5096132;28;20157;-76
2022/06/17 10:21:14;;;;;;;5.38;1.52;;;28.00;52.00;;;;;;5096430;28;20028;-75
2022/06/17 10:23:58;;;;;;;2.67;1.10;;;28.10;51.70;;;;;;5096164;28;20020;-76
2022/06/17 10:26:47;;;;;;;4.95;1.85;;;28.20;51.70;;;;;;5095685;28;20030;-74
2022/06/17 10:29:22;;;;;;;3.05;1.20;;;28.10;49.90;;;;;;5095200;28;20031;-75
2022/06/17 10:31:48;;;;;;;5.57;1.50;;;28.10;51.20;;;;;;5095779;28;20499;-76
2022/06/17 10:34:27;;;;;;;3.40;2.05;;;28.10;52.70;;;;;;5095793;28;20021;-76
2022/06/17 10:36:57;;;;;;;15.20;1.83;;;28.20;50.90;;;;;;5095652;28;20024;-76
2022/06/17 10:39:26;;;;;;;4.53;1.10;;;28.20;50.20;;;;;;5095814;28;20016;-77
2022/06/17 10:41:52;;;;;;;4.05;1.48;;;28.20;49.90;;;;;;5095411;28;20471;-76
2022/06/17 10:44:22;;;;;;;3.30;1.10;;;28.30;48.60;;;;;;5095841;28;20055;-75
2022/06/17 10:47:09;;;;;;;4.15;1.05;;;28.30;48.70;;;;;;5095414;28;20099;-76
2022/06/17 10:49:46;;;;;;;4.43;1.08;;;28.30;49.00;;;;;;5095267;28;20438;-76
2022/06/17 10:52:20;;;;;;;5.40;1.20;;;28.40;51.30;;;;;;5095732;28;20016;-77
2022/06/17 10:54:49;;;;;;;4.80;1.20;;;28.60;52.20;;;;;;5095417;28;20028;-75
2022/06/17 10:57:28;;;;;;;5.82;1.27;;;28.70;48.30;;;;;;5095066;28;20020;-76
2022/06/17 10:59:54;;;;;;;4.18;1.42;;;28.80;48.30;;;;;;5094933;28;20024;-75
2022/06/17 11:02:25;;;;;;;4.35;1.10;;;28.90;48.40;;;;;;5095558;28;20108;-76
2022/06/17 11:04:56;;;;;;;7.20;1.30;;;28.90;48.60;;;;;;5095341;28;20103;-76
2022/06/17 11:07:48;;;;;;;4.80;1.25;;;29.00;49.30;;;;;;5095521;28;20444;-76
2022/06/17 11:10:14;;;;;;;5.22;1.23;;;28.90;47.80;;;;;;5095134;28;20123;-76
2022/06/17 11:12:54;;;;;;;4.13;1.00;;;28.90;48.10;;;;;;5094836;28;20052;-76
2022/06/17 11:15:26;;;;;;;3.28;1.00;;;29.00;48.60;;;;;;5095024;28;20502;-76
2022/06/17 11:18:13;;;;;;;3.88;1.10;;;29.10;49.00;;;;;;5095030;28;20468;-76
2022/06/17 11:20:39;;;;;;;3.45;0.85;;;29.10;50.10;;;;;;5094512;28;20020;-76
2022/06/17 11:23:16;;;;;;;4.57;1.27;;;29.30;49.20;;;;;;5095096;28;20527;-76
2022/06/17 11:25:43;;;;;;;4.68;1.02;;;29.40;48.60;;;;;;5094877;28;20539;-76
2022/06/17 11:28:31;;;;;;;4.63;1.00;;;29.40;47.60;;;;;;5095252;28;20024;-76
2022/06/17 11:30:58;;;;;;;3.67;0.98;;;29.40;47.10;;;;;;5094802;28;20544;-76
2022/06/17 11:33:40;;;;;;;2.45;0.90;;;29.30;46.00;;;;;;5094823;28;20024;-76
2022/06/17 11:36:29;;;;;;;7.13;0.93;;;29.20;45.90;;;;;;5095173;28;20068;-76
2022/06/17 11:38:57;;;;;;;1.50;0.73;;;29.30;48.00;;;;;;5094965;28;20035;-76
2022/06/17 11:41:29;;;;;;;3.65;1.10;;;29.40;46.80;;;;;;5094270;28;20028;-76
2022/06/17 11:44:11;;;;;;;4.93;1.00;;;29.40;45.00;;;;;;5094375;28;20496;-76
2022/06/17 11:46:48;;;;;;;1.98;1.10;;;29.30;44.60;;;;;;5094655;28;20024;-76
2022/06/17 11:49:17;;;;;;;2.78;1.50;;;29.30;44.70;;;;;;5093998;28;20508;-76
2022/06/17 11:52:04;;;;;;;2.35;1.60;;;29.20;45.60;;;;;;5094357;28;20039;-76
2022/06/17 11:54:48;;;;;;;3.28;1.63;;;29.30;45.50;;;;;;5093941;28;20027;-75
2022/06/17 11:57:18;;;;;;;3.25;0.93;;;29.30;44.80;;;;;;5093578;28;20182;-76
2022/06/17 11:59:47;;;;;;;3.97;1.05;;;29.30;46.00;;;;;;5093317;28;20039;-76
2022/06/17 12:02:14;;;;;;;3.38;1.50;;;29.40;46.10;;;;;;5093654;28;20059;-76
2022/06/17 12:04:45;;;;;;;5.15;1.45;;;29.60;46.10;;;;;;5093756;28;20027;-76
2022/06/17 12:07:23;;;;;;;3.50;1.13;;;29.60;45.00;;;;;;5093601;28;20490;-75
2022/06/17 12:10:01;;;;;;;3.67;1.20;;;29.60;45.70;;;;;;5093407;28;20471;-75
2022/06/17 12:12:28;;;;;;;2.92;1.42;;;29.70;45.30;;;;;;5093936;28;20044;-76
2022/06/17 12:15:00;;;;;;;2.15;1.33;;;29.80;44.20;;;;;;5093723;28;20065;-75
2022/06/17 12:17:26;;;;;;;3.75;1.10;;;29.90;45.30;;;;;;5093754;28;20020;-76
2022/06/17 12:19:52;;;;;;;5.75;1.52;;;30.00;45.60;;;;;;5093491;28;20378;-75
2022/06/17 12:22:22;;;;;;;5.30;1.85;;;30.10;46.30;;;;;;5093788;28;20020;-76
2022/06/17 12:24:56;;;;;;;4.65;1.35;;;30.10;44.50;;;;;;5093898;28;20028;-76
2022/06/17 12:27:28;;;;;;;5.15;1.20;;;30.10;45.30;;;;;;5093898;28;20359;-76
2022/06/17 12:30:03;;;;;;;3.38;1.67;;;30.10;46.90;;;;;;5093806;28;20032;-76
2022/06/17 12:32:36;;;;;;;3.60;1.15;;;30.10;45.20;;;;;;5093348;28;20480;-76
2022/06/17 12:35:08;;;;;;;3.35;1.88;;;30.20;46.10;;;;;;5093473;28;20073;-76
2022/06/17 12:37:39;;;;;;;4.10;1.80;;;30.30;45.70;;;;;;5093520;28;20066;-76
2022/06/17 12:40:28;;;;;;;5.07;1.50;;;30.30;45.90;;;;;;5093017;28;20047;-76
2022/06/17 12:43:22;;;;;;;5.75;1.83;;;30.50;45.90;;;;;;5093254;28;20020;-76
2022/06/17 12:46:32;;;;;;;5.60;1.90;;;30.50;45.30;;;;;;5093556;28;20035;-76
2022/06/17 12:55:33;;;;;;;2.60;1.70;;;30.60;44.80;;;;;;5093167;28;20105;-76
2022/06/17 12:58:40;;;;;;;4.10;1.02;;;30.60;45.40;;;;;;5093213;28;20017;-76
2022/06/17 13:01:12;;;;;;;5.93;1.65;;;30.70;47.40;;;;;;5092500;28;20035;-76
2022/06/17 13:04:11;;;;;;;3.83;1.52;;;30.80;45.60;;;;;;5093190;28;20030;-76
2022/06/17 13:07:05;;;;;;;4.35;1.15;;;30.80;45.50;;;;;;5093245;28;20072;-76
2022/06/17 13:09:49;;;;;;;3.03;1.17;;;30.90;45.40;;;;;;5093439;28;20076;-76
2022/06/17 13:12:25;;;;;;;6.43;1.33;;;30.90;44.50;;;;;;5093188;28;20074;-76
2022/06/17 13:15:06;;;;;;;2.38;1.70;;;31.00;46.60;;;;;;5092994;28;20077;-77
2022/06/17 13:17:55;;;;;;;6.28;2.10;;;31.10;45.30;;;;;;5093030;28;20031;-77
2022/06/17 13:20:24;;;;;;;6.53;2.13;;;31.00;45.00;;;;;;5093125;28;20028;-75
2022/06/17 13:23:11;;;;;;;4.90;1.90;;;31.00;44.60;;;;;;5092563;28;20024;-75
2022/06/17 13:25:55;;;;;;;3.78;1.50;;;31.00;45.60;;;;;;5093412;28;20376;-75
2022/06/17 13:28:37;;;;;;;3.28;1.83;;;31.00;44.60;;;;;;5093453;28;20032;-76
2022/06/17 13:31:12;;;;;;;3.95;2.30;;;31.00;45.40;;;;;;5093353;28;20040;-75